Time;durP1;ratioP1;P1;durP2;ratioP2;P2;SDS_P1;SDS_P2;PMS_P1;PMS_P2;Temp;Humidity;BMP_temperature;BMP_pressure;BME280_temperature;BME280_humidity;BME280_pressure;Samples;Min_cycle;Max_cycle;Signal;HPM_P1;HPM_P2
2021/09/21 00:00:55;;;;;;;9.32;7.75;;;;;;;;;;2082257;28;20184;-58
2021/09/21 00:01:55;;;;;;;9.98;7.50;;;;;;;;;;2086335;28;20171;-56
2021/09/21 00:02:55;;;;;;;8.13;7.32;;;;;;;;;;2082284;28;20168;-58
2021/09/21 00:03:56;;;;;;;7.93;7.13;;;;;;;;;;2084279;28;20203;-57
2021/09/21 00:04:56;;;;;;;9.18;7.47;;;;;;;;;;2072254;28;20271;-57
2021/09/21 00:05:56;;;;;;;7.28;6.68;;;;;;;;;;2076625;28;20835;-55
2021/09/21 00:06:56;;;;;;;9.07;6.72;;;;;;;;;;2081123;28;20180;-57
2021/09/21 00:07:57;;;;;;;8.10;7.30;;;;;;;;;;2089488;28;20170;-58
2021/09/21 00:08:57;;;;;;;8.00;7.20;;;;;;;;;;2089819;28;20176;-55
2021/09/21 00:09:57;;;;;;;8.23;7.03;;;;;;;;;;2080535;28;20169;-55
2021/09/21 00:10:58;;;;;;;8.50;7.80;;;;;;;;;;2084630;28;20688;-58
2021/09/21 00:11:59;;;;;;;10.63;8.48;;;;;;;;;;2093923;28;20195;-54
2021/09/21 00:12:59;;;;;;;7.82;6.85;;;;;;;;;;2093859;28;20204;-58
2021/09/21 00:14:01;;;;;;;7.50;6.80;;;;;;;;;;2090768;28;20218;-55
2021/09/21 00:15:02;;;;;;;7.85;7.13;;;;;;;;;;2089841;28;20203;-57
2021/09/21 00:16:03;;;;;;;9.43;7.75;;;;;;;;;;2080804;28;20642;-57
2021/09/21 00:17:03;;;;;;;8.35;7.03;;;;;;;;;;2073017;28;20217;-59
2021/09/21 00:18:03;;;;;;;7.82;7.13;;;;;;;;;;2081279;28;20262;-61
2021/09/21 00:19:03;;;;;;;7.88;7.18;;;;;;;;;;2082630;28;20192;-59
2021/09/21 00:20:05;;;;;;;7.80;7.00;;;;;;;;;;2078626;28;20604;-62
2021/09/21 00:21:05;;;;;;;8.77;7.88;;;;;;;;;;2080834;28;20677;-59
2021/09/21 00:22:05;;;;;;;8.98;8.00;;;;;;;;;;2095532;28;20178;-61
2021/09/21 00:23:06;;;;;;;9.07;7.88;;;;;;;;;;2088474;28;20681;-60
2021/09/21 00:24:06;;;;;;;7.75;7.05;;;;;;;;;;2091832;28;20171;-60
2021/09/21 00:25:07;;;;;;;11.57;7.93;;;;;;;;;;2098404;28;20230;-58
2021/09/21 00:26:07;;;;;;;9.57;8.00;;;;;;;;;;2097055;28;20210;-58
2021/09/21 00:27:07;;;;;;;8.32;7.53;;;;;;;;;;2097826;28;20171;-59
2021/09/21 00:28:08;;;;;;;10.10;8.00;;;;;;;;;;2084007;28;20169;-54
2021/09/21 00:29:09;;;;;;;10.73;7.95;;;;;;;;;;2072926;28;20172;-60
2021/09/21 00:30:11;;;;;;;9.45;8.57;;;;;;;;;;2072948;28;20570;-59
2021/09/21 00:31:13;;;;;;;10.63;8.05;;;;;;;;;;2080109;28;20184;-57
2021/09/21 00:32:16;;;;;;;9.13;7.97;;;;;;;;;;2094203;28;20235;-54
2021/09/21 00:33:18;;;;;;;9.20;7.90;;;;;;;;;;2096178;28;20173;-57
2021/09/21 00:34:19;;;;;;;10.10;9.10;;;;;;;;;;2091571;28;20183;-57
2021/09/21 00:35:19;;;;;;;11.85;8.75;;;;;;;;;;2089694;28;20194;-60
2021/09/21 00:36:20;;;;;;;8.98;7.95;;;;;;;;;;2089674;28;20172;-62
2021/09/21 00:37:21;;;;;;;9.23;8.32;;;;;;;;;;2089751;28;20602;-60
2021/09/21 00:38:21;;;;;;;9.38;8.48;;;;;;;;;;2080187;28;20176;-62
2021/09/21 00:39:22;;;;;;;9.18;7.80;;;;;;;;;;2088023;28;20552;-58
2021/09/21 00:40:22;;;;;;;13.82;8.50;;;;;;;;;;2091119;28;20546;-57
2021/09/21 00:41:22;;;;;;;13.95;8.55;;;;;;;;;;2087827;28;20195;-58
2021/09/21 00:42:28;;;;;;;9.98;7.95;;;;;;;;;;2089435;28;20223;-59
2021/09/21 00:43:28;;;;;;;9.43;8.50;;;;;;;;;;2097980;28;20181;-59
2021/09/21 00:44:28;;;;;;;9.70;8.68;;;;;;;;;;2089339;28;20563;-59
2021/09/21 00:45:29;;;;;;;10.93;8.70;;;;;;;;;;2088685;28;20278;-59
2021/09/21 00:46:29;;;;;;;8.93;8.10;;;;;;;;;;2081201;28;20804;-62
2021/09/21 00:47:30;;;;;;;9.18;8.27;;;;;;;;;;2080523;28;20242;-60
2021/09/21 00:48:31;;;;;;;10.02;8.40;;;;;;;;;;2079937;28;20180;-59
2021/09/21 00:49:33;;;;;;;9.93;9.00;;;;;;;;;;2088956;28;20565;-56
2021/09/21 00:50:35;;;;;;;9.10;8.30;;;;;;;;;;2090163;28;20199;-56
2021/09/21 00:51:35;;;;;;;9.02;8.10;;;;;;;;;;2089865;28;20538;-60
2021/09/21 00:52:35;;;;;;;11.75;9.30;;;;;;;;;;2080394;28;20172;-61
2021/09/21 00:53:36;;;;;;;9.95;8.85;;;;;;;;;;2072548;28;20235;-61
2021/09/21 00:54:36;;;;;;;13.23;8.52;;;;;;;;;;2081136;28;20160;-59
2021/09/21 00:55:36;;;;;;;10.27;9.15;;;;;;;;;;2089593;28;20207;-60
2021/09/21 00:56:37;;;;;;;13.10;9.50;;;;;;;;;;2080644;28;20177;-60
2021/09/21 00:57:37;;;;;;;11.85;9.77;;;;;;;;;;2080214;28;20172;-59
2021/09/21 00:58:37;;;;;;;11.65;9.82;;;;;;;;;;2088748;28;20580;-59
2021/09/21 00:59:38;;;;;;;10.45;9.43;;;;;;;;;;2080045;28;20836;-61
2021/09/21 01:00:38;;;;;;;10.88;9.70;;;;;;;;;;2079627;28;20291;-57
2021/09/21 01:01:38;;;;;;;13.60;10.48;;;;;;;;;;2088826;28;20182;-62
2021/09/21 01:02:39;;;;;;;11.23;9.80;;;;;;;;;;2089225;28;20176;-61
2021/09/21 01:03:40;;;;;;;12.52;9.90;;;;;;;;;;2089334;28;20718;-57
2021/09/21 01:04:40;;;;;;;12.05;10.18;;;;;;;;;;2089477;28;20172;-59
2021/09/21 01:05:40;;;;;;;11.93;10.27;;;;;;;;;;2089988;28;20266;-59
2021/09/21 01:06:40;;;;;;;10.90;9.80;;;;;;;;;;2089961;28;20187;-58
2021/09/21 01:07:41;;;;;;;10.93;9.50;;;;;;;;;;2082354;28;20214;-58
2021/09/21 01:08:42;;;;;;;11.73;9.07;;;;;;;;;;2087486;28;20176;-61
2021/09/21 01:09:43;;;;;;;11.82;10.68;;;;;;;;;;2091844;28;20168;-59
2021/09/21 01:10:43;;;;;;;10.68;9.32;;;;;;;;;;2095374;28;20858;-58
2021/09/21 01:11:44;;;;;;;11.40;9.60;;;;;;;;;;2089513;28;20176;-58
2021/09/21 01:12:45;;;;;;;13.98;10.98;;;;;;;;;;2089313;28;20228;-58
2021/09/21 01:13:45;;;;;;;14.48;10.68;;;;;;;;;;2090210;28;20217;-58
2021/09/21 01:14:45;;;;;;;13.40;11.02;;;;;;;;;;2089618;28;20191;-59
2021/09/21 01:15:46;;;;;;;13.73;10.15;;;;;;;;;;2089750;28;20198;-59
2021/09/21 01:16:47;;;;;;;14.95;11.77;;;;;;;;;;2089518;28;20164;-59
2021/09/21 01:17:48;;;;;;;17.70;11.88;;;;;;;;;;2089662;28;20168;-60
2021/09/21 01:18:49;;;;;;;12.05;10.48;;;;;;;;;;2089221;28;20183;-58
2021/09/21 01:19:49;;;;;;;14.23;11.70;;;;;;;;;;2080995;28;20160;-55
2021/09/21 01:20:49;;;;;;;13.60;11.48;;;;;;;;;;2081320;28;20172;-59
2021/09/21 01:21:51;;;;;;;14.90;12.13;;;;;;;;;;2089536;28;20170;-62
2021/09/21 01:22:52;;;;;;;13.70;11.57;;;;;;;;;;2091399;28;20546;-60
2021/09/21 01:23:53;;;;;;;15.90;12.02;;;;;;;;;;2092186;28;20178;-59
2021/09/21 01:24:54;;;;;;;14.68;11.65;;;;;;;;;;2094548;28;20218;-61
2021/09/21 01:25:55;;;;;;;14.45;11.20;;;;;;;;;;2093702;28;20256;-61
2021/09/21 01:26:55;;;;;;;13.10;11.27;;;;;;;;;;2098216;28;20632;-55
2021/09/21 01:27:55;;;;;;;13.13;11.07;;;;;;;;;;2093109;28;20579;-61
2021/09/21 01:28:56;;;;;;;13.02;11.68;;;;;;;;;;2085251;28;20163;-62
2021/09/21 01:29:56;;;;;;;14.68;11.82;;;;;;;;;;2087412;28;20183;-63
2021/09/21 01:30:56;;;;;;;16.00;11.48;;;;;;;;;;2098742;28;20244;-64
2021/09/21 01:31:56;;;;;;;15.10;11.85;;;;;;;;;;2088124;28;20175;-59
2021/09/21 01:32:57;;;;;;;14.20;11.95;;;;;;;;;;2084307;28;20262;-60
2021/09/21 01:33:58;;;;;;;16.95;11.48;;;;;;;;;;2092811;28;20167;-61
2021/09/21 01:35:00;;;;;;;13.85;11.98;;;;;;;;;;2095753;28;20183;-59
2021/09/21 01:36:00;;;;;;;14.15;11.15;;;;;;;;;;2086107;28;20710;-60
2021/09/21 01:37:01;;;;;;;13.85;11.95;;;;;;;;;;2082585;28;20181;-57
2021/09/21 01:38:01;;;;;;;16.52;11.98;;;;;;;;;;2094564;28;20163;-59
2021/09/21 01:39:02;;;;;;;15.45;12.18;;;;;;;;;;2091305;28;20558;-58
2021/09/21 01:40:03;;;;;;;14.82;10.90;;;;;;;;;;2085946;28;20166;-58
2021/09/21 01:41:03;;;;;;;13.63;12.18;;;;;;;;;;2084007;28;20831;-55
2021/09/21 01:42:03;;;;;;;16.77;12.35;;;;;;;;;;2094355;28;20685;-56
2021/09/21 01:43:03;;;;;;;15.00;12.00;;;;;;;;;;2091983;28;20167;-60
2021/09/21 01:44:04;;;;;;;16.05;12.38;;;;;;;;;;2096712;28;20167;-58
2021/09/21 01:45:04;;;;;;;16.38;12.27;;;;;;;;;;2094009;28;20183;-58
2021/09/21 01:46:04;;;;;;;15.95;12.65;;;;;;;;;;2095382;28;20258;-59
2021/09/21 01:47:05;;;;;;;17.20;12.77;;;;;;;;;;2094776;28;20232;-58
2021/09/21 01:48:05;;;;;;;17.85;13.00;;;;;;;;;;2093981;28;20159;-58
2021/09/21 01:49:05;;;;;;;14.68;12.70;;;;;;;;;;2088433;28;20197;-62
2021/09/21 01:51:18;;;;;;;15.52;12.82;;;;;;;;;;2087055;28;20166;-57
2021/09/21 01:52:28;;;;;;;17.35;12.75;;;;;;;;;;2087146;28;20560;-61
2021/09/21 01:53:41;;;;;;;14.15;12.20;;;;;;;;;;2083996;28;20249;-57
2021/09/21 01:55:01;;;;;;;14.70;11.77;;;;;;;;;;2083521;28;20153;-59
2021/09/21 01:58:51;;;;;;;15.60;12.07;;;;;;;;;;2088924;28;20156;-56
2021/09/21 01:59:51;;;;;;;16.17;11.85;;;;;;;;;;2093662;28;20232;-62
2021/09/21 02:00:51;;;;;;;13.48;12.15;;;;;;;;;;2098502;28;20216;-59
2021/09/21 02:01:52;;;;;;;15.20;11.68;;;;;;;;;;2094139;28;20258;-59
2021/09/21 02:02:53;;;;;;;14.13;11.82;;;;;;;;;;2090811;28;20191;-61
2021/09/21 02:03:55;;;;;;;16.15;12.38;;;;;;;;;;2088280;28;20175;-60
2021/09/21 02:04:56;;;;;;;15.30;12.23;;;;;;;;;;2086888;28;20176;-60
2021/09/21 02:05:56;;;;;;;11.43;10.23;;;;;;;;;;2097441;28;20167;-60
2021/09/21 02:06:56;;;;;;;14.70;12.13;;;;;;;;;;2087789;28;20597;-59
2021/09/21 02:07:56;;;;;;;15.40;11.93;;;;;;;;;;2076094;28;20565;-58
2021/09/21 02:08:57;;;;;;;16.27;12.35;;;;;;;;;;2087820;28;20648;-60
2021/09/21 02:09:57;;;;;;;18.77;14.32;;;;;;;;;;2095337;28;20180;-57
2021/09/21 02:10:57;;;;;;;16.77;13.85;;;;;;;;;;2094647;28;20178;-59
2021/09/21 02:11:58;;;;;;;17.35;14.02;;;;;;;;;;2098425;28;20647;-63
2021/09/21 02:12:58;;;;;;;19.30;14.13;;;;;;;;;;2089327;28;20171;-59
2021/09/21 02:14:00;;;;;;;17.92;14.27;;;;;;;;;;2090331;28;20732;-57
2021/09/21 02:15:01;;;;;;;17.52;14.07;;;;;;;;;;2090895;28;20192;-54
2021/09/21 02:16:02;;;;;;;20.35;13.65;;;;;;;;;;2086857;28;20706;-57
2021/09/21 02:17:02;;;;;;;18.23;12.48;;;;;;;;;;2082661;28;20172;-55
2021/09/21 02:18:03;;;;;;;14.93;13.23;;;;;;;;;;2081625;28;20203;-57
2021/09/21 02:19:03;;;;;;;16.42;12.40;;;;;;;;;;2088692;28;20675;-57
2021/09/21 02:20:04;;;;;;;15.02;12.23;;;;;;;;;;2091094;28;20175;-55
2021/09/21 02:21:04;;;;;;;15.30;12.40;;;;;;;;;;2090887;28;20171;-58
2021/09/21 02:22:04;;;;;;;15.07;13.10;;;;;;;;;;2090111;28;20195;-56
2021/09/21 02:23:05;;;;;;;15.27;12.90;;;;;;;;;;2094761;28;20185;-55
2021/09/21 02:24:05;;;;;;;15.05;12.65;;;;;;;;;;2095060;28;20170;-56
2021/09/21 02:25:06;;;;;;;18.13;13.20;;;;;;;;;;2094350;28;20233;-52
2021/09/21 02:26:06;;;;;;;14.25;12.30;;;;;;;;;;2095452;28;20283;-52
2021/09/21 02:27:06;;;;;;;14.55;12.30;;;;;;;;;;2099240;28;20167;-59
2021/09/21 02:28:06;;;;;;;15.57;12.38;;;;;;;;;;2094395;28;20180;-54
2021/09/21 02:29:07;;;;;;;15.02;12.80;;;;;;;;;;2081756;28;20169;-56
2021/09/21 02:30:07;;;;;;;17.27;13.55;;;;;;;;;;2081777;28;20671;-57
2021/09/21 02:31:07;;;;;;;16.30;13.07;;;;;;;;;;2090688;28;20453;-56
2021/09/21 02:32:08;;;;;;;15.07;12.15;;;;;;;;;;2090721;28;20190;-60
2021/09/21 02:33:08;;;;;;;14.95;11.98;;;;;;;;;;2091064;28;20586;-56
2021/09/21 02:34:08;;;;;;;14.10;12.02;;;;;;;;;;2089217;28;20195;-56
2021/09/21 02:35:08;;;;;;;15.35;12.60;;;;;;;;;;2092815;28;20567;-56
2021/09/21 02:36:09;;;;;;;13.07;11.77;;;;;;;;;;2084648;28;20187;-59
2021/09/21 02:37:09;;;;;;;13.38;11.93;;;;;;;;;;2082870;28;20223;-55
2021/09/21 02:38:09;;;;;;;15.57;11.25;;;;;;;;;;2081705;28;20552;-54
2021/09/21 02:39:10;;;;;;;14.48;11.32;;;;;;;;;;2090458;28;20171;-59
2021/09/21 02:40:11;;;;;;;13.90;11.40;;;;;;;;;;2082013;28;20168;-55
2021/09/21 02:41:11;;;;;;;12.68;11.38;;;;;;;;;;2081867;28;20230;-56
2021/09/21 02:42:11;;;;;;;15.50;12.73;;;;;;;;;;2090548;28;20225;-60
2021/09/21 02:43:12;;;;;;;15.30;11.68;;;;;;;;;;2090416;28;20187;-59
2021/09/21 02:44:12;;;;;;;14.40;12.25;;;;;;;;;;2090418;28;20168;-59
2021/09/21 02:45:12;;;;;;;15.88;11.93;;;;;;;;;;2089661;28;20203;-57
2021/09/21 02:46:13;;;;;;;11.27;10.18;;;;;;;;;;2096662;28;20171;-60
2021/09/21 02:47:13;;;;;;;13.13;11.15;;;;;;;;;;2092492;28;20229;-61
2021/09/21 02:48:13;;;;;;;13.85;11.27;;;;;;;;;;2081446;28;20189;-60
2021/09/21 02:49:13;;;;;;;11.63;10.45;;;;;;;;;;2081383;28;20176;-61
2021/09/21 02:50:14;;;;;;;12.98;11.13;;;;;;;;;;2087693;28;20187;-57
2021/09/21 02:51:14;;;;;;;13.70;11.05;;;;;;;;;;2087351;28;20167;-55
2021/09/21 02:52:14;;;;;;;14.52;12.57;;;;;;;;;;2095753;28;20210;-59
2021/09/21 02:53:17;;;;;;;13.15;11.73;;;;;;;;;;2091761;28;20184;-60
2021/09/21 02:54:17;;;;;;;12.43;10.95;;;;;;;;;;2096414;28;20163;-58
2021/09/21 02:55:17;;;;;;;15.88;11.65;;;;;;;;;;2091953;28;20211;-58
2021/09/21 02:56:17;;;;;;;14.38;11.57;;;;;;;;;;2096161;28;20211;-58
2021/09/21 02:57:18;;;;;;;12.90;11.55;;;;;;;;;;2093510;28;20179;-57
2021/09/21 02:58:18;;;;;;;14.13;11.02;;;;;;;;;;2092835;28;20199;-58
2021/09/21 02:59:18;;;;;;;13.40;11.20;;;;;;;;;;2091366;28;20622;-56
2021/09/21 03:00:25;;;;;;;14.45;12.02;;;;;;;;;;2097920;28;20171;-53
2021/09/21 03:01:25;;;;;;;15.00;11.90;;;;;;;;;;2084554;28;20176;-59
2021/09/21 03:02:26;;;;;;;14.40;12.18;;;;;;;;;;2085498;28;20268;-61
2021/09/21 03:03:31;;;;;;;17.15;12.52;;;;;;;;;;2098310;28;20224;-60
2021/09/21 03:04:36;;;;;;;12.68;11.38;;;;;;;;;;2075172;28;20149;-59
2021/09/21 03:05:43;;;;;;;13.98;10.75;;;;;;;;;;2076879;28;20679;-64
2021/09/21 03:06:48;;;;;;;17.38;11.55;;;;;;;;;;2092206;28;20164;-61
2021/09/21 03:07:55;;;;;;;12.95;11.13;;;;;;;;;;2092602;28;20176;-61
2021/09/21 03:09:04;;;;;;;13.50;10.55;;;;;;;;;;2091646;28;20247;-59
2021/09/21 03:10:22;;;;;;;12.15;10.95;;;;;;;;;;2097036;28;20198;-59
2021/09/21 03:11:26;;;;;;;12.68;10.98;;;;;;;;;;2098478;28;20166;-61
2021/09/21 03:12:58;;;;;;;13.38;11.93;;;;;;;;;;2092620;28;20171;-64
2021/09/21 03:17:50;;;;;;;14.02;11.52;;;;;;;;;;2092077;28;20171;-64
2021/09/21 03:18:51;;;;;;;17.20;13.05;;;;;;;;;;2092292;28;20176;-57
2021/09/21 03:19:54;;;;;;;17.20;13.02;;;;;;;;;;2081682;28;20180;-58
2021/09/21 03:20:55;;;;;;;17.58;13.02;;;;;;;;;;2080515;28;20725;-57
2021/09/21 03:21:55;;;;;;;15.45;13.75;;;;;;;;;;2089759;28;20258;-61
2021/09/21 03:22:55;;;;;;;16.63;13.35;;;;;;;;;;2093288;28;20182;-60
2021/09/21 03:23:56;;;;;;;17.20;13.82;;;;;;;;;;2089427;28;20171;-57
2021/09/21 03:24:56;;;;;;;14.43;12.85;;;;;;;;;;2092924;28;20168;-58
2021/09/21 03:25:56;;;;;;;14.93;12.75;;;;;;;;;;2088002;28;20250;-57
2021/09/21 03:26:57;;;;;;;15.57;11.70;;;;;;;;;;2083627;28;20786;-58
2021/09/21 03:27:57;;;;;;;13.52;12.13;;;;;;;;;;2080474;28;20216;-56
2021/09/21 03:28:58;;;;;;;14.57;11.57;;;;;;;;;;2085009;28;20179;-56
2021/09/21 03:29:58;;;;;;;13.10;11.80;;;;;;;;;;2089768;28;20254;-59
2021/09/21 03:30:58;;;;;;;14.35;10.95;;;;;;;;;;2090181;28;20182;-61
2021/09/21 03:31:58;;;;;;;11.25;10.15;;;;;;;;;;2095539;28;20187;-61
2021/09/21 03:32:59;;;;;;;13.77;10.75;;;;;;;;;;2088950;28;20182;-57
2021/09/21 03:33:59;;;;;;;12.55;10.95;;;;;;;;;;2089571;28;20171;-61
2021/09/21 03:35:00;;;;;;;12.65;10.70;;;;;;;;;;2090555;28;20191;-59
2021/09/21 03:36:00;;;;;;;12.32;10.30;;;;;;;;;;2090927;28;20167;-59
2021/09/21 03:37:00;;;;;;;12.57;10.52;;;;;;;;;;2094222;28;20163;-57
2021/09/21 03:38:01;;;;;;;11.65;10.45;;;;;;;;;;2093579;28;20198;-59
2021/09/21 03:39:02;;;;;;;13.57;11.27;;;;;;;;;;2094720;28;20170;-61
2021/09/21 03:40:03;;;;;;;11.00;9.88;;;;;;;;;;2089947;28;20297;-57
2021/09/21 03:41:03;;;;;;;11.70;10.05;;;;;;;;;;2090165;28;20214;-60
2021/09/21 03:42:04;;;;;;;11.15;10.02;;;;;;;;;;2090968;28;20175;-54
2021/09/21 03:43:05;;;;;;;14.05;10.27;;;;;;;;;;2090153;28;20263;-55
2021/09/21 03:44:05;;;;;;;10.85;9.75;;;;;;;;;;2085270;28;20205;-54
2021/09/21 03:45:06;;;;;;;12.45;10.23;;;;;;;;;;2087896;28;20233;-57
2021/09/21 03:46:06;;;;;;;11.50;10.25;;;;;;;;;;2089750;28;20652;-56
2021/09/21 03:47:06;;;;;;;11.52;9.88;;;;;;;;;;2089961;28;20180;-62
2021/09/21 03:48:08;;;;;;;11.40;9.63;;;;;;;;;;2089760;28;20730;-58
2021/09/21 03:49:08;;;;;;;12.10;9.73;;;;;;;;;;2089892;28;20205;-57
2021/09/21 03:50:09;;;;;;;10.68;9.57;;;;;;;;;;2089787;28;20186;-57
2021/09/21 03:51:09;;;;;;;12.30;10.70;;;;;;;;;;2089820;28;20172;-59
2021/09/21 03:52:09;;;;;;;11.48;10.15;;;;;;;;;;2090104;28;20170;-62
2021/09/21 03:53:09;;;;;;;10.40;9.40;;;;;;;;;;2080944;28;20184;-58
2021/09/21 03:54:10;;;;;;;12.80;10.27;;;;;;;;;;2080912;28;20613;-58
2021/09/21 03:55:11;;;;;;;12.23;9.40;;;;;;;;;;2089747;28;20529;-56
2021/09/21 03:56:11;;;;;;;11.90;9.93;;;;;;;;;;2095319;28;20190;-60
2021/09/21 03:57:12;;;;;;;14.35;10.25;;;;;;;;;;2093397;28;20543;-60
2021/09/21 03:58:12;;;;;;;10.90;9.52;;;;;;;;;;2095292;28;20175;-59
2021/09/21 03:59:12;;;;;;;11.25;9.32;;;;;;;;;;2091776;28;20183;-58
2021/09/21 04:00:13;;;;;;;12.57;9.45;;;;;;;;;;2095840;28;20167;-56
2021/09/21 04:01:13;;;;;;;11.18;10.00;;;;;;;;;;2091915;28;20180;-62
2021/09/21 04:02:13;;;;;;;11.10;10.00;;;;;;;;;;2095343;28;20167;-60
2021/09/21 04:03:14;;;;;;;10.70;9.32;;;;;;;;;;2090665;28;20179;-58
2021/09/21 04:04:14;;;;;;;9.10;8.30;;;;;;;;;;2090179;28;20180;-57
2021/09/21 04:05:14;;;;;;;10.52;9.45;;;;;;;;;;2090657;28;20194;-60
2021/09/21 04:06:15;;;;;;;10.65;9.00;;;;;;;;;;2087429;28;20186;-59
2021/09/21 04:07:15;;;;;;;10.95;9.23;;;;;;;;;;2084147;28;20218;-60
2021/09/21 04:08:15;;;;;;;10.43;9.43;;;;;;;;;;2096242;28;20270;-60
2021/09/21 04:09:15;;;;;;;11.38;9.30;;;;;;;;;;2093907;28;20194;-58
2021/09/21 04:10:16;;;;;;;12.70;9.45;;;;;;;;;;2090536;28;20160;-60
2021/09/21 04:11:16;;;;;;;11.77;9.60;;;;;;;;;;2090167;28;20636;-55
2021/09/21 04:12:16;;;;;;;9.15;8.25;;;;;;;;;;2089705;28;20195;-60
2021/09/21 04:13:17;;;;;;;9.73;8.65;;;;;;;;;;2090432;28;20538;-58
2021/09/21 04:14:17;;;;;;;12.60;9.25;;;;;;;;;;2083786;28;20176;-59
2021/09/21 04:15:17;;;;;;;11.57;9.20;;;;;;;;;;2081742;28;20208;-60
2021/09/21 04:16:18;;;;;;;11.10;9.10;;;;;;;;;;2089029;28;20483;-61
2021/09/21 04:17:18;;;;;;;12.18;9.75;;;;;;;;;;2090360;28;20778;-61
2021/09/21 04:18:18;;;;;;;10.07;8.65;;;;;;;;;;2089187;28;20183;-60
2021/09/21 04:19:19;;;;;;;16.48;8.93;;;;;;;;;;2089689;28;20174;-62
2021/09/21 04:20:19;;;;;;;10.98;9.27;;;;;;;;;;2096198;28;20182;-59
2021/09/21 04:21:19;;;;;;;10.10;9.05;;;;;;;;;;2091323;28;20163;-59
2021/09/21 04:22:19;;;;;;;9.40;8.60;;;;;;;;;;2084930;28;20172;-58
2021/09/21 04:23:20;;;;;;;11.18;9.45;;;;;;;;;;2086498;28;20240;-58
2021/09/21 04:24:20;;;;;;;11.25;10.13;;;;;;;;;;2093042;28;20162;-54
2021/09/21 04:25:20;;;;;;;10.32;9.35;;;;;;;;;;2094753;28;20768;-58
2021/09/21 04:26:20;;;;;;;11.02;9.35;;;;;;;;;;2088175;28;20198;-54
2021/09/21 04:27:21;;;;;;;10.82;9.68;;;;;;;;;;2082185;28;20173;-56
2021/09/21 04:28:21;;;;;;;14.20;9.43;;;;;;;;;;2095938;28;20187;-58
2021/09/21 04:29:22;;;;;;;11.27;10.02;;;;;;;;;;2093317;28;20546;-53
2021/09/21 04:30:22;;;;;;;10.23;9.10;;;;;;;;;;2081834;28;20650;-57
2021/09/21 04:31:24;;;;;;;10.90;9.55;;;;;;;;;;2065702;28;20165;-58
2021/09/21 04:32:24;;;;;;;9.57;8.68;;;;;;;;;;2079829;28;20168;-55
2021/09/21 04:33:24;;;;;;;10.18;9.25;;;;;;;;;;2088692;28;20827;-56
2021/09/21 04:34:25;;;;;;;11.80;9.77;;;;;;;;;;2091314;28;20274;-58
2021/09/21 04:35:25;;;;;;;10.30;9.18;;;;;;;;;;2094281;28;20199;-56
2021/09/21 04:36:26;;;;;;;10.32;9.20;;;;;;;;;;2091890;28;20208;-55
2021/09/21 04:37:26;;;;;;;12.00;9.73;;;;;;;;;;2083568;28;20184;-60
2021/09/21 04:38:26;;;;;;;11.27;9.85;;;;;;;;;;2075496;28;20166;-57
2021/09/21 04:39:27;;;;;;;12.82;10.25;;;;;;;;;;2083639;28;20160;-52
2021/09/21 04:40:27;;;;;;;10.40;9.35;;;;;;;;;;2092065;28;20788;-58
2021/09/21 04:41:27;;;;;;;10.88;9.57;;;;;;;;;;2092819;28;20194;-54
2021/09/21 04:42:28;;;;;;;10.50;9.25;;;;;;;;;;2092912;28;20178;-52
2021/09/21 04:43:28;;;;;;;10.85;9.63;;;;;;;;;;2092138;28;20188;-55
2021/09/21 04:44:28;;;;;;;10.07;9.07;;;;;;;;;;2092109;28;20214;-59
2021/09/21 04:45:29;;;;;;;11.60;9.77;;;;;;;;;;2090985;28;20559;-55
2021/09/21 04:46:30;;;;;;;10.57;9.43;;;;;;;;;;2091674;28;20635;-59
2021/09/21 04:47:30;;;;;;;13.55;9.60;;;;;;;;;;2091127;28;20267;-60
2021/09/21 04:48:31;;;;;;;10.63;8.85;;;;;;;;;;2081057;28;20195;-61
2021/09/21 04:49:31;;;;;;;13.27;9.65;;;;;;;;;;2082973;28;20215;-58
2021/09/21 04:50:31;;;;;;;12.23;10.23;;;;;;;;;;2098746;28;20174;-57
2021/09/21 04:51:31;;;;;;;11.02;9.40;;;;;;;;;;2090290;28;20197;-55
2021/09/21 04:52:32;;;;;;;10.75;9.00;;;;;;;;;;2081073;28;20180;-57
2021/09/21 04:53:32;;;;;;;12.05;9.52;;;;;;;;;;2072579;28;20693;-55
2021/09/21 04:54:32;;;;;;;11.38;9.27;;;;;;;;;;2081286;28;20187;-58
2021/09/21 04:55:33;;;;;;;12.95;9.00;;;;;;;;;;2090358;28;20200;-58
2021/09/21 04:56:33;;;;;;;10.30;8.73;;;;;;;;;;2081287;28;20616;-62
2021/09/21 04:57:33;;;;;;;10.30;9.18;;;;;;;;;;2083531;28;20211;-60
2021/09/21 04:58:33;;;;;;;12.52;9.52;;;;;;;;;;2098230;28;20159;-60
2021/09/21 04:59:34;;;;;;;9.98;8.98;;;;;;;;;;2091679;28;20173;-54
2021/09/21 05:00:34;;;;;;;10.75;9.68;;;;;;;;;;2090636;28;20180;-56
2021/09/21 05:01:36;;;;;;;10.05;8.73;;;;;;;;;;2093068;28;20167;-57
2021/09/21 05:02:36;;;;;;;10.32;9.15;;;;;;;;;;2093078;28;20239;-58
2021/09/21 05:03:37;;;;;;;13.20;9.70;;;;;;;;;;2086449;28;20184;-58
2021/09/21 05:04:37;;;;;;;12.90;10.48;;;;;;;;;;2092024;28;20182;-55
2021/09/21 05:05:37;;;;;;;9.70;8.82;;;;;;;;;;2085121;28;20187;-57
2021/09/21 05:06:37;;;;;;;10.27;9.05;;;;;;;;;;2092936;28;20183;-57
2021/09/21 05:07:38;;;;;;;11.05;9.75;;;;;;;;;;2092273;28;20194;-60
2021/09/21 05:08:38;;;;;;;10.48;9.38;;;;;;;;;;2092984;28;20179;-57
2021/09/21 05:09:38;;;;;;;10.57;9.07;;;;;;;;;;2091514;28;20237;-55
2021/09/21 05:10:39;;;;;;;13.88;9.80;;;;;;;;;;2091619;28;20172;-58
2021/09/21 05:11:39;;;;;;;11.70;10.20;;;;;;;;;;2091780;28;20174;-60
2021/09/21 05:12:39;;;;;;;11.85;10.65;;;;;;;;;;2088028;28;20271;-55
2021/09/21 05:13:40;;;;;;;11.73;10.48;;;;;;;;;;2089683;28;20198;-54
2021/09/21 05:14:42;;;;;;;10.45;9.40;;;;;;;;;;2080906;28;20180;-61
2021/09/21 05:15:45;;;;;;;12.50;10.55;;;;;;;;;;2080795;28;20192;-57
2021/09/21 05:16:45;;;;;;;11.52;10.15;;;;;;;;;;2089376;28;20175;-66
2021/09/21 05:17:45;;;;;;;12.32;9.90;;;;;;;;;;2088953;28;20644;-59
2021/09/21 05:18:45;;;;;;;14.15;11.75;;;;;;;;;;2088928;28;20175;-57
2021/09/21 05:19:46;;;;;;;12.20;10.13;;;;;;;;;;2089587;28;20531;-55
2021/09/21 05:20:46;;;;;;;11.05;9.73;;;;;;;;;;2089843;28;20175;-57
2021/09/21 05:21:46;;;;;;;11.90;10.25;;;;;;;;;;2080111;28;20176;-58
2021/09/21 05:22:51;;;;;;;10.90;9.80;;;;;;;;;;2080678;28;20176;-58
2021/09/21 05:23:52;;;;;;;12.27;9.93;;;;;;;;;;2079705;28;20214;-60
2021/09/21 05:24:52;;;;;;;11.48;10.38;;;;;;;;;;2082578;28;20266;-62
2021/09/21 05:25:52;;;;;;;11.15;9.30;;;;;;;;;;2091654;28;20167;-57
2021/09/21 05:26:52;;;;;;;13.57;10.40;;;;;;;;;;2090059;28;20180;-61
2021/09/21 05:27:53;;;;;;;13.45;12.05;;;;;;;;;;2071309;28;20173;-54
2021/09/21 05:28:53;;;;;;;12.73;10.27;;;;;;;;;;2073113;28;20654;-61
2021/09/21 05:29:53;;;;;;;12.43;11.15;;;;;;;;;;2088004;28;20569;-59
2021/09/21 05:30:53;;;;;;;12.93;10.90;;;;;;;;;;2089597;28;20175;-58
2021/09/21 05:31:53;;;;;;;13.52;10.68;;;;;;;;;;2090053;28;20170;-57
2021/09/21 05:32:54;;;;;;;14.05;11.38;;;;;;;;;;2080739;28;20188;-56
2021/09/21 05:33:54;;;;;;;12.65;11.40;;;;;;;;;;2080428;28;20727;-55
2021/09/21 05:34:54;;;;;;;11.88;10.68;;;;;;;;;;2089014;28;20433;-58
2021/09/21 05:35:54;;;;;;;12.32;10.50;;;;;;;;;;2086771;28;20282;-60
2021/09/21 05:36:55;;;;;;;10.85;9.63;;;;;;;;;;2089552;28;20242;-56
2021/09/21 05:37:55;;;;;;;10.07;9.07;;;;;;;;;;2092336;28;20209;-61
2021/09/21 05:38:55;;;;;;;11.85;9.40;;;;;;;;;;2095027;28;20176;-61
2021/09/21 05:39:56;;;;;;;11.77;9.60;;;;;;;;;;2093399;28;20175;-59
2021/09/21 05:40:56;;;;;;;10.60;9.60;;;;;;;;;;2094067;28;20186;-56
2021/09/21 05:41:56;;;;;;;11.40;10.10;;;;;;;;;;2089316;28;20259;-57
2021/09/21 05:42:56;;;;;;;10.52;9.35;;;;;;;;;;2089880;28;20270;-58
2021/09/21 05:43:57;;;;;;;10.85;9.57;;;;;;;;;;2089773;28;20167;-60
2021/09/21 05:44:57;;;;;;;12.93;9.75;;;;;;;;;;2089827;28;20696;-55
2021/09/21 05:45:57;;;;;;;13.32;10.38;;;;;;;;;;2080027;28;20256;-60
2021/09/21 05:46:57;;;;;;;12.07;9.73;;;;;;;;;;2085383;28;20172;-61
2021/09/21 05:47:58;;;;;;;11.13;9.88;;;;;;;;;;2089018;28;20186;-59
2021/09/21 05:48:59;;;;;;;12.48;11.18;;;;;;;;;;2095894;28;20257;-61
2021/09/21 05:50:00;;;;;;;15.55;13.95;;;;;;;;;;2075515;28;20197;-64
2021/09/21 05:51:00;;;;;;;13.50;10.80;;;;;;;;;;2072684;28;20185;-61
2021/09/21 05:52:00;;;;;;;13.68;9.85;;;;;;;;;;2080008;28;20207;-63
2021/09/21 05:53:01;;;;;;;12.40;9.15;;;;;;;;;;2088789;28;20183;-56
2021/09/21 05:54:01;;;;;;;11.70;9.73;;;;;;;;;;2092082;28;20174;-61
2021/09/21 05:55:03;;;;;;;14.13;10.70;;;;;;;;;;2093312;28;20223;-64
2021/09/21 05:56:03;;;;;;;13.27;10.40;;;;;;;;;;2094713;28;20225;-66
2021/09/21 05:57:03;;;;;;;12.57;9.75;;;;;;;;;;2088580;28;20206;-65
2021/09/21 05:58:03;;;;;;;12.63;10.07;;;;;;;;;;2072708;28;20176;-61
2021/09/21 05:59:04;;;;;;;12.45;9.63;;;;;;;;;;2079166;28;20179;-64
2021/09/21 06:00:05;;;;;;;12.45;10.50;;;;;;;;;;2088877;28;20186;-61
2021/09/21 06:01:12;;;;;;;14.27;10.32;;;;;;;;;;2092569;28;20226;-59
2021/09/21 06:02:13;;;;;;;11.27;9.50;;;;;;;;;;2081781;28;20657;-61
2021/09/21 06:03:13;;;;;;;15.75;12.90;;;;;;;;;;2082040;28;20239;-58
2021/09/21 06:04:13;;;;;;;13.13;11.68;;;;;;;;;;2090532;28;20168;-62
2021/09/21 06:05:13;;;;;;;12.48;10.45;;;;;;;;;;2081865;28;20184;-61